Aeroporto :
LOGIN :

Iscrizione | Disclaimer

   EN    FR    IT 

 










Sommario :    VFR   VFR Marginale   IFR   IFR Intensivo   IFR Molto Intensivo
Visibilità : 
Base nubi : 
>= 8 km
>= 3000ft
5 / 8 km
1000 / 3000 ft
1500m / 5 km
500 / 1000 ft
800 / 1500m
200 / 500 ft
< 800m
< 200 ft
Simboli :   Temporali  Nebbia  Neve Forte  Precipitazioni Forti  Vento > 20 kt
SIGMETs :   Varie  Temporali  Ghiacco  Turbolenza  Onda orograficha  Ceneri Vulcaniche







- Altitudine del aeroporto : 55 ft
- Codice IATA : DSA
- Carte del aeroporto


EGCN - Robin Hood Doncaster Sheffield

ULTIMO METAR :
  • 222050Z 23010KT 9999 SCT024 BKN035 11/08 Q1026

METARs OBSOLETI :
  • 222020Z 19007KT 9999 BKN024 12/08 Q1026
  • 221950Z 21007KT 9999 SCT025 BKN030 12/08 Q1025
  • 221920Z 22010KT 9999 BKN025 BKN031 12/07 Q1025
  • 221850Z 23013KT 9999 BKN025 OVC036 12/08 Q1025
  • 221820Z 22013KT 9999 BKN027 BKN033 12/08 Q1025
  • 221750Z 22012KT 9999 SCT032 BKN038 13/08 Q1025

TAF TAF EGCN
Valido dal 22 a 18 ore il 23 a 18 ore UTC


221702Z 2218/2318 22016KT 9999 FEW012 BKN030
TEMPO 2218/2221 6000 RA BKN012
BECMG 2221/2224 29006KT CAVOK
Nessun NOTAM noto per questo aeroporto.



MetMap, La meteo Aeronautica in un colpo d'occhio ! - Copyright ORBIFLY Dicembre 2007 - Disclaimer

ORBIFLY MET'MAP TEAM :

Programmazione e sviluppo : Alexandra Zaïnal
Concezione e sviluppo : Baudouin d'Aumeries
Co-Programmazione e sviluppo : Marc-Olivier Méhu
Supporto tecnico e logistico : Manuel Goepfert
Aiuto per la traduzione : Arnaldo La Scala

Contatto : metmap@orbifly.com




FONTI E CREDITI :

   NOAA